sensor_id;sensor_type;location;lat;lon;timestamp;P1;durP1;ratioP1;P2;durP2;ratioP2
15764;SDS011;7983;50.744;7.086;2024-01-30T00:00:55;6.75;;;4.28;;
15764;SDS011;7983;50.744;7.086;2024-01-30T00:03:24;6.60;;;4.78;;
15764;SDS011;7983;50.744;7.086;2024-01-30T00:05:50;7.65;;;4.75;;
15764;SDS011;7983;50.744;7.086;2024-01-30T00:08:15;7.65;;;4.88;;
15764;SDS011;7983;50.744;7.086;2024-01-30T00:10:43;8.63;;;4.97;;
15764;SDS011;7983;50.744;7.086;2024-01-30T00:13:09;5.93;;;4.78;;
15764;SDS011;7983;50.744;7.086;2024-01-30T00:15:39;6.93;;;4.35;;
15764;SDS011;7983;50.744;7.086;2024-01-30T00:18:04;6.15;;;4.40;;
15764;SDS011;7983;50.744;7.086;2024-01-30T00:20:30;6.25;;;4.45;;
15764;SDS011;7983;50.744;7.086;2024-01-30T00:22:55;5.25;;;4.28;;
15764;SDS011;7983;50.744;7.086;2024-01-30T00:25:26;6.85;;;4.15;;
15764;SDS011;7983;50.744;7.086;2024-01-30T00:27:51;6.32;;;4.63;;
15764;SDS011;7983;50.744;7.086;2024-01-30T00:30:19;5.55;;;4.38;;
15764;SDS011;7983;50.744;7.086;2024-01-30T00:32:45;5.38;;;4.53;;
15764;SDS011;7983;50.744;7.086;2024-01-30T00:35:11;6.28;;;4.60;;
15764;SDS011;7983;50.744;7.086;2024-01-30T00:37:39;6.45;;;4.10;;
15764;SDS011;7983;50.744;7.086;2024-01-30T00:40:07;5.10;;;3.88;;
15764;SDS011;7983;50.744;7.086;2024-01-30T00:42:35;5.47;;;4.28;;
15764;SDS011;7983;50.744;7.086;2024-01-30T00:45:03;7.55;;;4.38;;
15764;SDS011;7983;50.744;7.086;2024-01-30T00:47:31;5.75;;;4.00;;
15764;SDS011;7983;50.744;7.086;2024-01-30T00:49:59;6.75;;;4.20;;
15764;SDS011;7983;50.744;7.086;2024-01-30T00:52:24;5.50;;;4.15;;
15764;SDS011;7983;50.744;7.086;2024-01-30T00:54:50;4.72;;;4.10;;
15764;SDS011;7983;50.744;7.086;2024-01-30T00:57:18;7.13;;;4.50;;
15764;SDS011;7983;50.744;7.086;2024-01-30T00:59:43;5.82;;;4.35;;
15764;SDS011;7983;50.744;7.086;2024-01-30T01:02:09;6.13;;;4.32;;
15764;SDS011;7983;50.744;7.086;2024-01-30T01:04:35;6.35;;;4.95;;
15764;SDS011;7983;50.744;7.086;2024-01-30T01:07:00;5.85;;;4.40;;
15764;SDS011;7983;50.744;7.086;2024-01-30T01:09:29;6.55;;;4.88;;
15764;SDS011;7983;50.744;7.086;2024-01-30T01:11:56;5.95;;;4.38;;
15764;SDS011;7983;50.744;7.086;2024-01-30T01:14:22;6.65;;;4.68;;
15764;SDS011;7983;50.744;7.086;2024-01-30T01:16:47;6.22;;;4.20;;
15764;SDS011;7983;50.744;7.086;2024-01-30T01:19:13;7.10;;;4.35;;
15764;SDS011;7983;50.744;7.086;2024-01-30T01:21:39;4.38;;;3.85;;
15764;SDS011;7983;50.744;7.086;2024-01-30T01:24:07;6.03;;;4.35;;
15764;SDS011;7983;50.744;7.086;2024-01-30T01:26:32;6.38;;;4.38;;
15764;SDS011;7983;50.744;7.086;2024-01-30T01:28:58;6.72;;;4.55;;
15764;SDS011;7983;50.744;7.086;2024-01-30T01:31:29;5.55;;;4.28;;
15764;SDS011;7983;50.744;7.086;2024-01-30T01:33:56;6.65;;;4.50;;
15764;SDS011;7983;50.744;7.086;2024-01-30T01:36:27;5.30;;;3.83;;
15764;SDS011;7983;50.744;7.086;2024-01-30T01:38:58;6.85;;;4.57;;
15764;SDS011;7983;50.744;7.086;2024-01-30T01:41:23;7.82;;;4.15;;
15764;SDS011;7983;50.744;7.086;2024-01-30T01:43:49;5.85;;;4.18;;
15764;SDS011;7983;50.744;7.086;2024-01-30T01:46:14;6.32;;;4.57;;
15764;SDS011;7983;50.744;7.086;2024-01-30T01:48:40;5.13;;;3.90;;
15764;SDS011;7983;50.744;7.086;2024-01-30T01:51:08;5.25;;;3.92;;
15764;SDS011;7983;50.744;7.086;2024-01-30T01:53:37;5.90;;;4.15;;
15764;SDS011;7983;50.744;7.086;2024-01-30T01:56:02;7.10;;;4.32;;
15764;SDS011;7983;50.744;7.086;2024-01-30T01:58:28;6.82;;;4.78;;
15764;SDS011;7983;50.744;7.086;2024-01-30T02:00:55;7.43;;;4.25;;
15764;SDS011;7983;50.744;7.086;2024-01-30T02:03:22;5.47;;;3.95;;
15764;SDS011;7983;50.744;7.086;2024-01-30T02:05:47;6.13;;;4.70;;
15764;SDS011;7983;50.744;7.086;2024-01-30T02:08:14;5.03;;;4.32;;
15764;SDS011;7983;50.744;7.086;2024-01-30T02:10:42;5.38;;;4.32;;
15764;SDS011;7983;50.744;7.086;2024-01-30T02:13:08;5.28;;;4.45;;
15764;SDS011;7983;50.744;7.086;2024-01-30T02:15:35;5.65;;;4.32;;
15764;SDS011;7983;50.744;7.086;2024-01-30T02:18:03;5.07;;;3.92;;
15764;SDS011;7983;50.744;7.086;2024-01-30T02:20:30;6.90;;;4.20;;
15764;SDS011;7983;50.744;7.086;2024-01-30T02:22:59;9.40;;;4.45;;
15764;SDS011;7983;50.744;7.086;2024-01-30T02:25:43;6.60;;;4.80;;
15764;SDS011;7983;50.744;7.086;2024-01-30T02:28:14;7.90;;;4.85;;
15764;SDS011;7983;50.744;7.086;2024-01-30T02:30:42;5.50;;;4.60;;
15764;SDS011;7983;50.744;7.086;2024-01-30T02:33:10;6.47;;;4.80;;
15764;SDS011;7983;50.744;7.086;2024-01-30T02:35:36;6.65;;;4.63;;
15764;SDS011;7983;50.744;7.086;2024-01-30T02:38:01;7.20;;;4.63;;
15764;SDS011;7983;50.744;7.086;2024-01-30T02:40:27;6.28;;;4.28;;
15764;SDS011;7983;50.744;7.086;2024-01-30T02:42:55;6.43;;;4.38;;
15764;SDS011;7983;50.744;7.086;2024-01-30T02:45:21;6.53;;;4.45;;
15764;SDS011;7983;50.744;7.086;2024-01-30T02:47:49;5.78;;;4.55;;
15764;SDS011;7983;50.744;7.086;2024-01-30T02:50:15;4.95;;;3.70;;
15764;SDS011;7983;50.744;7.086;2024-01-30T02:52:41;5.50;;;4.00;;
15764;SDS011;7983;50.744;7.086;2024-01-30T02:55:09;6.53;;;4.22;;
15764;SDS011;7983;50.744;7.086;2024-01-30T02:57:34;7.13;;;4.80;;
15764;SDS011;7983;50.744;7.086;2024-01-30T03:00:00;6.82;;;4.30;;
15764;SDS011;7983;50.744;7.086;2024-01-30T03:02:29;4.72;;;4.07;;
15764;SDS011;7983;50.744;7.086;2024-01-30T03:05:00;6.78;;;5.03;;
15764;SDS011;7983;50.744;7.086;2024-01-30T03:07:25;5.60;;;4.32;;
15764;SDS011;7983;50.744;7.086;2024-01-30T03:09:51;4.72;;;4.07;;
15764;SDS011;7983;50.744;7.086;2024-01-30T03:12:17;6.82;;;4.18;;
15764;SDS011;7983;50.744;7.086;2024-01-30T03:14:43;6.57;;;4.85;;
15764;SDS011;7983;50.744;7.086;2024-01-30T03:17:08;5.55;;;4.40;;
15764;SDS011;7983;50.744;7.086;2024-01-30T03:19:39;6.65;;;4.18;;
15764;SDS011;7983;50.744;7.086;2024-01-30T03:22:04;6.72;;;4.20;;
15764;SDS011;7983;50.744;7.086;2024-01-30T03:24:30;6.13;;;4.30;;
15764;SDS011;7983;50.744;7.086;2024-01-30T03:26:55;5.70;;;3.97;;
15764;SDS011;7983;50.744;7.086;2024-01-30T03:29:23;5.47;;;4.65;;
15764;SDS011;7983;50.744;7.086;2024-01-30T03:31:51;6.43;;;4.57;;
15764;SDS011;7983;50.744;7.086;2024-01-30T03:34:21;5.78;;;4.18;;
15764;SDS011;7983;50.744;7.086;2024-01-30T03:36:47;5.47;;;4.10;;
15764;SDS011;7983;50.744;7.086;2024-01-30T03:39:15;6.70;;;4.68;;
15764;SDS011;7983;50.744;7.086;2024-01-30T03:41:44;6.00;;;4.30;;
15764;SDS011;7983;50.744;7.086;2024-01-30T03:44:12;6.78;;;3.97;;
15764;SDS011;7983;50.744;7.086;2024-01-30T03:46:37;4.60;;;4.05;;
15764;SDS011;7983;50.744;7.086;2024-01-30T03:49:03;5.68;;;4.50;;
15764;SDS011;7983;50.744;7.086;2024-01-30T03:51:28;7.57;;;4.45;;
15764;SDS011;7983;50.744;7.086;2024-01-30T03:53:57;7.03;;;4.32;;
15764;SDS011;7983;50.744;7.086;2024-01-30T03:56:22;9.85;;;4.93;;
15764;SDS011;7983;50.744;7.086;2024-01-30T03:58:52;6.10;;;4.55;;
15764;SDS011;7983;50.744;7.086;2024-01-30T04:01:18;5.18;;;4.28;;
15764;SDS011;7983;50.744;7.086;2024-01-30T04:03:44;4.90;;;4.07;;
15764;SDS011;7983;50.744;7.086;2024-01-30T04:06:10;4.43;;;3.67;;
15764;SDS011;7983;50.744;7.086;2024-01-30T04:08:35;4.95;;;4.07;;
15764;SDS011;7983;50.744;7.086;2024-01-30T04:11:05;5.82;;;4.05;;
15764;SDS011;7983;50.744;7.086;2024-01-30T04:13:32;6.18;;;3.90;;
15764;SDS011;7983;50.744;7.086;2024-01-30T04:15:59;6.38;;;3.90;;
15764;SDS011;7983;50.744;7.086;2024-01-30T04:18:28;5.53;;;3.90;;
15764;SDS011;7983;50.744;7.086;2024-01-30T04:20:54;5.50;;;3.92;;
15764;SDS011;7983;50.744;7.086;2024-01-30T04:23:24;5.28;;;4.15;;
15764;SDS011;7983;50.744;7.086;2024-01-30T04:25:50;6.07;;;4.15;;
15764;SDS011;7983;50.744;7.086;2024-01-30T04:28:18;4.95;;;3.92;;
15764;SDS011;7983;50.744;7.086;2024-01-30T04:30:46;5.65;;;4.30;;
15764;SDS011;7983;50.744;7.086;2024-01-30T04:33:16;7.10;;;4.30;;
15764;SDS011;7983;50.744;7.086;2024-01-30T04:35:46;5.73;;;3.83;;
15764;SDS011;7983;50.744;7.086;2024-01-30T04:38:12;6.53;;;4.53;;
15764;SDS011;7983;50.744;7.086;2024-01-30T04:40:42;7.15;;;4.93;;
15764;SDS011;7983;50.744;7.086;2024-01-30T04:43:08;6.50;;;4.57;;
15764;SDS011;7983;50.744;7.086;2024-01-30T04:45:34;5.95;;;4.30;;
15764;SDS011;7983;50.744;7.086;2024-01-30T04:48:01;6.05;;;4.40;;
15764;SDS011;7983;50.744;7.086;2024-01-30T04:50:27;5.23;;;4.00;;
15764;SDS011;7983;50.744;7.086;2024-01-30T04:52:55;7.68;;;4.68;;
15764;SDS011;7983;50.744;7.086;2024-01-30T04:55:21;6.63;;;4.20;;
15764;SDS011;7983;50.744;7.086;2024-01-30T04:57:46;5.30;;;4.38;;
15764;SDS011;7983;50.744;7.086;2024-01-30T05:00:12;5.63;;;3.90;;
15764;SDS011;7983;50.744;7.086;2024-01-30T05:02:41;5.50;;;4.22;;
15764;SDS011;7983;50.744;7.086;2024-01-30T05:05:06;4.97;;;3.80;;
15764;SDS011;7983;50.744;7.086;2024-01-30T05:07:32;5.10;;;4.15;;
15764;SDS011;7983;50.744;7.086;2024-01-30T05:09:59;5.93;;;3.97;;
15764;SDS011;7983;50.744;7.086;2024-01-30T05:12:24;5.80;;;4.28;;
15764;SDS011;7983;50.744;7.086;2024-01-30T05:14:50;5.40;;;3.90;;
15764;SDS011;7983;50.744;7.086;2024-01-30T05:17:18;4.95;;;3.75;;
15764;SDS011;7983;50.744;7.086;2024-01-30T05:19:44;5.33;;;3.67;;
15764;SDS011;7983;50.744;7.086;2024-01-30T05:22:09;5.80;;;3.97;;
15764;SDS011;7983;50.744;7.086;2024-01-30T05:24:35;5.75;;;3.88;;
15764;SDS011;7983;50.744;7.086;2024-01-30T05:27:04;6.03;;;4.40;;
15764;SDS011;7983;50.744;7.086;2024-01-30T05:29:29;6.57;;;4.30;;
15764;SDS011;7983;50.744;7.086;2024-01-30T05:31:55;5.40;;;3.60;;
15764;SDS011;7983;50.744;7.086;2024-01-30T05:34:23;6.30;;;4.45;;
15764;SDS011;7983;50.744;7.086;2024-01-30T05:36:48;6.03;;;4.30;;
15764;SDS011;7983;50.744;7.086;2024-01-30T05:39:14;4.75;;;3.78;;
15764;SDS011;7983;50.744;7.086;2024-01-30T05:41:40;5.23;;;3.67;;
15764;SDS011;7983;50.744;7.086;2024-01-30T05:44:07;4.82;;;3.90;;
15764;SDS011;7983;50.744;7.086;2024-01-30T05:46:35;5.03;;;3.83;;
15764;SDS011;7983;50.744;7.086;2024-01-30T05:49:00;5.93;;;4.25;;
15764;SDS011;7983;50.744;7.086;2024-01-30T05:51:28;7.97;;;4.90;;
15764;SDS011;7983;50.744;7.086;2024-01-30T05:53:54;6.03;;;4.18;;
15764;SDS011;7983;50.744;7.086;2024-01-30T05:56:22;5.50;;;4.27;;
15764;SDS011;7983;50.744;7.086;2024-01-30T05:58:50;6.20;;;4.10;;
15764;SDS011;7983;50.744;7.086;2024-01-30T06:01:20;6.50;;;4.47;;
15764;SDS011;7983;50.744;7.086;2024-01-30T06:03:46;5.30;;;4.25;;
15764;SDS011;7983;50.744;7.086;2024-01-30T06:06:11;6.50;;;4.53;;
15764;SDS011;7983;50.744;7.086;2024-01-30T06:08:37;5.43;;;4.40;;
15764;SDS011;7983;50.744;7.086;2024-01-30T06:11:05;5.90;;;3.83;;
15764;SDS011;7983;50.744;7.086;2024-01-30T06:13:30;5.20;;;4.25;;
15764;SDS011;7983;50.744;7.086;2024-01-30T06:15:58;8.33;;;4.60;;
15764;SDS011;7983;50.744;7.086;2024-01-30T06:18:26;6.47;;;4.00;;
15764;SDS011;7983;50.744;7.086;2024-01-30T06:20:54;6.30;;;4.30;;
15764;SDS011;7983;50.744;7.086;2024-01-30T06:23:22;5.85;;;4.00;;
15764;SDS011;7983;50.744;7.086;2024-01-30T06:25:47;5.38;;;4.15;;
15764;SDS011;7983;50.744;7.086;2024-01-30T06:28:13;4.93;;;4.03;;
15764;SDS011;7983;50.744;7.086;2024-01-30T06:30:39;7.53;;;4.65;;
15764;SDS011;7983;50.744;7.086;2024-01-30T06:33:04;5.85;;;4.70;;
15764;SDS011;7983;50.744;7.086;2024-01-30T06:35:30;6.60;;;5.13;;
15764;SDS011;7983;50.744;7.086;2024-01-30T06:37:58;6.13;;;4.53;;
15764;SDS011;7983;50.744;7.086;2024-01-30T06:40:26;6.05;;;4.50;;
15764;SDS011;7983;50.744;7.086;2024-01-30T06:42:51;5.75;;;4.82;;
15764;SDS011;7983;50.744;7.086;2024-01-30T06:45:19;7.05;;;4.95;;
15764;SDS011;7983;50.744;7.086;2024-01-30T06:47:47;5.72;;;4.57;;
15764;SDS011;7983;50.744;7.086;2024-01-30T06:50:13;6.22;;;4.18;;
15764;SDS011;7983;50.744;7.086;2024-01-30T06:52:40;5.85;;;4.75;;
15764;SDS011;7983;50.744;7.086;2024-01-30T06:55:06;7.03;;;5.50;;
15764;SDS011;7983;50.744;7.086;2024-01-30T06:57:32;7.38;;;5.05;;
15764;SDS011;7983;50.744;7.086;2024-01-30T07:00:00;6.78;;;4.38;;
15764;SDS011;7983;50.744;7.086;2024-01-30T07:02:26;5.82;;;4.53;;
15764;SDS011;7983;50.744;7.086;2024-01-30T07:04:51;7.28;;;4.82;;
15764;SDS011;7983;50.744;7.086;2024-01-30T07:07:19;5.95;;;4.72;;
15764;SDS011;7983;50.744;7.086;2024-01-30T07:09:45;6.90;;;4.57;;
15764;SDS011;7983;50.744;7.086;2024-01-30T07:12:14;6.82;;;4.65;;
15764;SDS011;7983;50.744;7.086;2024-01-30T07:14:40;6.63;;;4.57;;
15764;SDS011;7983;50.744;7.086;2024-01-30T07:17:08;6.07;;;4.75;;
15764;SDS011;7983;50.744;7.086;2024-01-30T07:19:34;6.43;;;4.65;;
15764;SDS011;7983;50.744;7.086;2024-01-30T07:22:00;5.30;;;4.50;;
15764;SDS011;7983;50.744;7.086;2024-01-30T07:24:26;6.25;;;4.43;;
15764;SDS011;7983;50.744;7.086;2024-01-30T07:26:52;7.75;;;5.10;;
15764;SDS011;7983;50.744;7.086;2024-01-30T07:29:18;6.70;;;4.85;;
15764;SDS011;7983;50.744;7.086;2024-01-30T07:31:46;6.07;;;4.65;;
15764;SDS011;7983;50.744;7.086;2024-01-30T07:34:14;6.57;;;4.55;;
15764;SDS011;7983;50.744;7.086;2024-01-30T07:36:40;5.63;;;4.50;;
15764;SDS011;7983;50.744;7.086;2024-01-30T07:39:08;5.63;;;4.03;;
15764;SDS011;7983;50.744;7.086;2024-01-30T07:41:35;5.63;;;4.15;;
15764;SDS011;7983;50.744;7.086;2024-01-30T07:44:03;6.40;;;4.05;;
15764;SDS011;7983;50.744;7.086;2024-01-30T07:46:28;6.20;;;4.65;;
15764;SDS011;7983;50.744;7.086;2024-01-30T07:48:54;7.72;;;5.20;;
15764;SDS011;7983;50.744;7.086;2024-01-30T07:51:22;7.18;;;5.35;;
15764;SDS011;7983;50.744;7.086;2024-01-30T07:53:50;5.57;;;4.80;;
15764;SDS011;7983;50.744;7.086;2024-01-30T07:56:15;6.93;;;4.75;;
15764;SDS011;7983;50.744;7.086;2024-01-30T07:58:43;6.28;;;4.93;;
15764;SDS011;7983;50.744;7.086;2024-01-30T08:01:09;5.80;;;4.55;;
15764;SDS011;7983;50.744;7.086;2024-01-30T08:03:35;7.32;;;4.93;;
15764;SDS011;7983;50.744;7.086;2024-01-30T08:06:02;7.10;;;5.47;;
15764;SDS011;7983;50.744;7.086;2024-01-30T08:08:30;6.93;;;5.20;;
15764;SDS011;7983;50.744;7.086;2024-01-30T08:10:55;8.55;;;4.72;;
15764;SDS011;7983;50.744;7.086;2024-01-30T08:13:23;7.63;;;5.20;;
15764;SDS011;7983;50.744;7.086;2024-01-30T08:15:49;6.50;;;4.70;;
15764;SDS011;7983;50.744;7.086;2024-01-30T08:18:17;6.55;;;4.72;;
15764;SDS011;7983;50.744;7.086;2024-01-30T08:20:45;6.57;;;5.05;;
15764;SDS011;7983;50.744;7.086;2024-01-30T08:23:11;7.03;;;5.18;;
15764;SDS011;7983;50.744;7.086;2024-01-30T08:25:36;7.05;;;5.20;;
15764;SDS011;7983;50.744;7.086;2024-01-30T08:28:02;6.35;;;5.03;;
15764;SDS011;7983;50.744;7.086;2024-01-30T08:30:33;6.32;;;4.93;;
15764;SDS011;7983;50.744;7.086;2024-01-30T08:32:58;7.18;;;5.18;;
15764;SDS011;7983;50.744;7.086;2024-01-30T08:35:24;7.35;;;4.75;;
15764;SDS011;7983;50.744;7.086;2024-01-30T08:37:52;7.32;;;5.10;;
15764;SDS011;7983;50.744;7.086;2024-01-30T08:40:19;7.38;;;5.25;;
15764;SDS011;7983;50.744;7.086;2024-01-30T08:42:47;8.05;;;4.82;;
15764;SDS011;7983;50.744;7.086;2024-01-30T08:45:12;6.05;;;4.80;;
15764;SDS011;7983;50.744;7.086;2024-01-30T08:47:40;6.85;;;5.15;;
15764;SDS011;7983;50.744;7.086;2024-01-30T08:50:06;8.25;;;5.35;;
15764;SDS011;7983;50.744;7.086;2024-01-30T08:52:32;7.30;;;5.05;;
15764;SDS011;7983;50.744;7.086;2024-01-30T08:55:00;6.05;;;4.65;;
15764;SDS011;7983;50.744;7.086;2024-01-30T08:57:26;6.10;;;4.07;;
15764;SDS011;7983;50.744;7.086;2024-01-30T08:59:59;6.50;;;4.68;;
15764;SDS011;7983;50.744;7.086;2024-01-30T09:02:25;6.40;;;4.15;;
15764;SDS011;7983;50.744;7.086;2024-01-30T09:04:53;6.43;;;4.80;;
15764;SDS011;7983;50.744;7.086;2024-01-30T09:07:18;6.68;;;5.00;;
15764;SDS011;7983;50.744;7.086;2024-01-30T09:09:46;7.05;;;4.57;;
15764;SDS011;7983;50.744;7.086;2024-01-30T09:12:14;5.50;;;4.30;;
15764;SDS011;7983;50.744;7.086;2024-01-30T09:14:40;7.30;;;4.80;;
15764;SDS011;7983;50.744;7.086;2024-01-30T09:17:06;6.40;;;4.50;;
15764;SDS011;7983;50.744;7.086;2024-01-30T09:19:32;4.88;;;3.92;;
15764;SDS011;7983;50.744;7.086;2024-01-30T09:21:58;5.72;;;4.40;;
15764;SDS011;7983;50.744;7.086;2024-01-30T09:24:26;6.72;;;4.57;;
15764;SDS011;7983;50.744;7.086;2024-01-30T09:26:52;8.50;;;5.22;;
15764;SDS011;7983;50.744;7.086;2024-01-30T09:29:18;7.32;;;4.75;;
15764;SDS011;7983;50.744;7.086;2024-01-30T09:31:44;5.28;;;4.18;;
15764;SDS011;7983;50.744;7.086;2024-01-30T09:34:10;6.70;;;4.90;;
15764;SDS011;7983;50.744;7.086;2024-01-30T09:36:36;6.28;;;4.32;;
15764;SDS011;7983;50.744;7.086;2024-01-30T09:39:01;6.82;;;4.82;;
15764;SDS011;7983;50.744;7.086;2024-01-30T09:41:28;7.70;;;5.22;;
15764;SDS011;7983;50.744;7.086;2024-01-30T09:43:57;6.72;;;4.90;;
15764;SDS011;7983;50.744;7.086;2024-01-30T09:46:26;6.72;;;4.97;;
15764;SDS011;7983;50.744;7.086;2024-01-30T09:48:53;8.55;;;5.35;;
15764;SDS011;7983;50.744;7.086;2024-01-30T09:51:20;7.05;;;4.88;;
15764;SDS011;7983;50.744;7.086;2024-01-30T09:53:47;7.38;;;5.30;;
15764;SDS011;7983;50.744;7.086;2024-01-30T09:56:14;8.57;;;5.45;;
15764;SDS011;7983;50.744;7.086;2024-01-30T09:58:39;6.45;;;4.80;;
15764;SDS011;7983;50.744;7.086;2024-01-30T10:01:05;6.30;;;4.55;;
15764;SDS011;7983;50.744;7.086;2024-01-30T10:03:31;5.95;;;4.65;;
15764;SDS011;7983;50.744;7.086;2024-01-30T10:05:57;7.88;;;5.25;;
15764;SDS011;7983;50.744;7.086;2024-01-30T10:08:23;9.13;;;5.60;;
15764;SDS011;7983;50.744;7.086;2024-01-30T10:10:49;6.68;;;4.70;;
15764;SDS011;7983;50.744;7.086;2024-01-30T10:13:15;7.90;;;5.68;;
15764;SDS011;7983;50.744;7.086;2024-01-30T10:15:41;6.82;;;5.18;;
15764;SDS011;7983;50.744;7.086;2024-01-30T10:18:10;9.82;;;5.95;;
15764;SDS011;7983;50.744;7.086;2024-01-30T10:20:36;8.90;;;5.45;;
15764;SDS011;7983;50.744;7.086;2024-01-30T10:23:02;7.55;;;6.03;;
15764;SDS011;7983;50.744;7.086;2024-01-30T10:25:29;8.48;;;6.05;;
15764;SDS011;7983;50.744;7.086;2024-01-30T10:27:59;7.00;;;5.60;;
15764;SDS011;7983;50.744;7.086;2024-01-30T10:30:27;6.78;;;5.22;;
15764;SDS011;7983;50.744;7.086;2024-01-30T10:32:53;6.75;;;4.80;;
15764;SDS011;7983;50.744;7.086;2024-01-30T10:35:25;7.63;;;5.20;;
15764;SDS011;7983;50.744;7.086;2024-01-30T10:37:53;6.32;;;4.82;;
15764;SDS011;7983;50.744;7.086;2024-01-30T10:40:22;6.25;;;4.93;;
15764;SDS011;7983;50.744;7.086;2024-01-30T10:42:56;7.38;;;5.50;;
15764;SDS011;7983;50.744;7.086;2024-01-30T10:45:25;5.70;;;4.82;;
15764;SDS011;7983;50.744;7.086;2024-01-30T10:47:53;7.60;;;5.25;;
15764;SDS011;7983;50.744;7.086;2024-01-30T10:50:24;7.45;;;5.38;;
15764;SDS011;7983;50.744;7.086;2024-01-30T10:52:53;7.05;;;5.13;;
15764;SDS011;7983;50.744;7.086;2024-01-30T10:55:21;6.43;;;4.95;;
15764;SDS011;7983;50.744;7.086;2024-01-30T10:57:48;7.82;;;5.60;;
15764;SDS011;7983;50.744;7.086;2024-01-30T11:00:14;7.30;;;5.53;;
15764;SDS011;7983;50.744;7.086;2024-01-30T11:02:45;6.05;;;5.28;;
15764;SDS011;7983;50.744;7.086;2024-01-30T11:05:12;8.52;;;5.40;;
15764;SDS011;7983;50.744;7.086;2024-01-30T11:07:40;6.55;;;5.03;;
15764;SDS011;7983;50.744;7.086;2024-01-30T11:10:06;6.25;;;4.68;;
15764;SDS011;7983;50.744;7.086;2024-01-30T11:12:39;7.22;;;4.88;;
15764;SDS011;7983;50.744;7.086;2024-01-30T11:17:50;8.27;;;5.30;;
15764;SDS011;7983;50.744;7.086;2024-01-30T11:20:29;7.30;;;4.93;;
15764;SDS011;7983;50.744;7.086;2024-01-30T11:23:00;6.90;;;5.10;;
15764;SDS011;7983;50.744;7.086;2024-01-30T11:25:31;7.13;;;5.18;;
15764;SDS011;7983;50.744;7.086;2024-01-30T11:27:57;7.63;;;4.45;;
15764;SDS011;7983;50.744;7.086;2024-01-30T11:32:59;6.97;;;5.05;;
15764;SDS011;7983;50.744;7.086;2024-01-30T11:38:24;7.20;;;4.47;;
15764;SDS011;7983;50.744;7.086;2024-01-30T11:40:54;5.47;;;4.10;;
15764;SDS011;7983;50.744;7.086;2024-01-30T11:43:22;5.55;;;4.15;;
15764;SDS011;7983;50.744;7.086;2024-01-30T11:45:50;6.20;;;4.10;;
15764;SDS011;7983;50.744;7.086;2024-01-30T11:48:17;8.18;;;4.40;;
15764;SDS011;7983;50.744;7.086;2024-01-30T11:50:42;7.43;;;4.30;;
15764;SDS011;7983;50.744;7.086;2024-01-30T11:53:11;5.95;;;4.55;;
15764;SDS011;7983;50.744;7.086;2024-01-30T11:55:40;6.25;;;4.97;;
15764;SDS011;7983;50.744;7.086;2024-01-30T11:58:05;7.57;;;4.30;;
15764;SDS011;7983;50.744;7.086;2024-01-30T12:00:31;7.10;;;4.03;;
15764;SDS011;7983;50.744;7.086;2024-01-30T12:02:58;6.78;;;4.30;;
15764;SDS011;7983;50.744;7.086;2024-01-30T12:05:25;5.50;;;3.83;;
15764;SDS011;7983;50.744;7.086;2024-01-30T12:07:52;5.38;;;3.90;;
15764;SDS011;7983;50.744;7.086;2024-01-30T12:10:18;7.30;;;4.50;;
15764;SDS011;7983;50.744;7.086;2024-01-30T12:12:47;5.53;;;4.10;;
15764;SDS011;7983;50.744;7.086;2024-01-30T12:15:14;5.47;;;4.00;;
15764;SDS011;7983;50.744;7.086;2024-01-30T12:17:43;5.63;;;4.05;;
15764;SDS011;7983;50.744;7.086;2024-01-30T12:20:12;7.00;;;4.35;;
15764;SDS011;7983;50.744;7.086;2024-01-30T12:22:40;5.57;;;3.90;;
15764;SDS011;7983;50.744;7.086;2024-01-30T12:27:46;5.68;;;3.50;;
15764;SDS011;7983;50.744;7.086;2024-01-30T12:30:16;4.43;;;3.30;;
15764;SDS011;7983;50.744;7.086;2024-01-30T12:32:45;4.88;;;3.70;;
15764;SDS011;7983;50.744;7.086;2024-01-30T12:35:16;5.50;;;3.53;;
15764;SDS011;7983;50.744;7.086;2024-01-30T12:37:45;6.88;;;3.70;;
15764;SDS011;7983;50.744;7.086;2024-01-30T12:40:13;4.72;;;3.55;;
15764;SDS011;7983;50.744;7.086;2024-01-30T12:42:42;5.80;;;3.60;;
15764;SDS011;7983;50.744;7.086;2024-01-30T12:45:14;6.05;;;3.28;;
15764;SDS011;7983;50.744;7.086;2024-01-30T12:47:42;4.93;;;3.40;;
15764;SDS011;7983;50.744;7.086;2024-01-30T12:50:10;5.18;;;3.45;;
15764;SDS011;7983;50.744;7.086;2024-01-30T12:52:40;4.85;;;3.83;;
15764;SDS011;7983;50.744;7.086;2024-01-30T12:55:09;6.82;;;3.95;;
15764;SDS011;7983;50.744;7.086;2024-01-30T12:57:37;4.50;;;3.25;;
15764;SDS011;7983;50.744;7.086;2024-01-30T13:00:07;5.10;;;3.65;;
15764;SDS011;7983;50.744;7.086;2024-01-30T13:02:35;6.15;;;3.70;;
15764;SDS011;7983;50.744;7.086;2024-01-30T13:05:02;6.10;;;4.28;;
15764;SDS011;7983;50.744;7.086;2024-01-30T13:07:28;5.53;;;4.00;;
15764;SDS011;7983;50.744;7.086;2024-01-30T13:09:54;6.47;;;3.83;;
15764;SDS011;7983;50.744;7.086;2024-01-30T13:12:20;5.15;;;3.65;;
15764;SDS011;7983;50.744;7.086;2024-01-30T13:14:45;5.78;;;4.03;;
15764;SDS011;7983;50.744;7.086;2024-01-30T13:17:11;4.95;;;3.65;;
15764;SDS011;7983;50.744;7.086;2024-01-30T13:19:37;5.13;;;3.50;;
15764;SDS011;7983;50.744;7.086;2024-01-30T13:22:05;6.60;;;3.45;;
15764;SDS011;7983;50.744;7.086;2024-01-30T13:24:32;5.03;;;3.88;;
15764;SDS011;7983;50.744;7.086;2024-01-30T13:27:03;5.50;;;4.10;;
15764;SDS011;7983;50.744;7.086;2024-01-30T13:29:31;6.43;;;4.00;;
15764;SDS011;7983;50.744;7.086;2024-01-30T13:31:59;5.95;;;4.43;;
15764;SDS011;7983;50.744;7.086;2024-01-30T13:34:24;9.48;;;4.30;;
15764;SDS011;7983;50.744;7.086;2024-01-30T13:36:57;5.30;;;3.63;;
15764;SDS011;7983;50.744;7.086;2024-01-30T13:39:25;5.70;;;3.90;;
15764;SDS011;7983;50.744;7.086;2024-01-30T13:41:55;6.50;;;3.88;;
15764;SDS011;7983;50.744;7.086;2024-01-30T13:44:21;7.25;;;3.80;;
15764;SDS011;7983;50.744;7.086;2024-01-30T13:46:47;5.68;;;3.90;;
15764;SDS011;7983;50.744;7.086;2024-01-30T13:49:12;5.20;;;3.83;;
15764;SDS011;7983;50.744;7.086;2024-01-30T13:51:38;4.68;;;3.92;;
15764;SDS011;7983;50.744;7.086;2024-01-30T13:54:06;6.03;;;4.25;;
15764;SDS011;7983;50.744;7.086;2024-01-30T13:56:31;5.60;;;4.20;;
15764;SDS011;7983;50.744;7.086;2024-01-30T13:58:59;6.28;;;4.38;;
15764;SDS011;7983;50.744;7.086;2024-01-30T14:01:26;6.50;;;4.72;;
15764;SDS011;7983;50.744;7.086;2024-01-30T14:03:52;5.78;;;4.32;;
15764;SDS011;7983;50.744;7.086;2024-01-30T14:06:17;7.57;;;4.90;;
15764;SDS011;7983;50.744;7.086;2024-01-30T14:08:46;5.88;;;4.55;;
15764;SDS011;7983;50.744;7.086;2024-01-30T14:11:16;7.38;;;4.22;;
15764;SDS011;7983;50.744;7.086;2024-01-30T14:13:41;4.20;;;3.70;;
15764;SDS011;7983;50.744;7.086;2024-01-30T14:16:10;5.25;;;4.07;;
15764;SDS011;7983;50.744;7.086;2024-01-30T14:18:35;5.63;;;3.85;;
15764;SDS011;7983;50.744;7.086;2024-01-30T14:21:01;5.55;;;4.18;;
15764;SDS011;7983;50.744;7.086;2024-01-30T14:23:27;6.57;;;4.55;;
15764;SDS011;7983;50.744;7.086;2024-01-30T14:25:53;7.53;;;4.28;;
15764;SDS011;7983;50.744;7.086;2024-01-30T14:28:19;6.53;;;4.43;;
15764;SDS011;7983;50.744;7.086;2024-01-30T14:30:44;8.10;;;5.13;;
15764;SDS011;7983;50.744;7.086;2024-01-30T14:33:10;6.80;;;4.63;;
15764;SDS011;7983;50.744;7.086;2024-01-30T14:35:35;5.70;;;4.65;;
15764;SDS011;7983;50.744;7.086;2024-01-30T14:38:04;6.05;;;4.70;;
15764;SDS011;7983;50.744;7.086;2024-01-30T14:40:32;5.32;;;4.43;;
15764;SDS011;7983;50.744;7.086;2024-01-30T14:42:58;8.32;;;4.78;;
15764;SDS011;7983;50.744;7.086;2024-01-30T14:45:23;6.28;;;4.28;;
15764;SDS011;7983;50.744;7.086;2024-01-30T14:47:51;5.95;;;4.60;;
15764;SDS011;7983;50.744;7.086;2024-01-30T14:50:17;8.18;;;4.53;;
15764;SDS011;7983;50.744;7.086;2024-01-30T14:53:01;6.53;;;4.10;;
15764;SDS011;7983;50.744;7.086;2024-01-30T14:55:30;5.30;;;4.18;;
15764;SDS011;7983;50.744;7.086;2024-01-30T14:57:58;5.60;;;4.50;;
15764;SDS011;7983;50.744;7.086;2024-01-30T15:00:27;6.95;;;4.60;;
15764;SDS011;7983;50.744;7.086;2024-01-30T15:02:53;7.75;;;4.68;;
15764;SDS011;7983;50.744;7.086;2024-01-30T15:05:26;11.77;;;5.22;;
15764;SDS011;7983;50.744;7.086;2024-01-30T15:07:52;6.50;;;4.60;;
15764;SDS011;7983;50.744;7.086;2024-01-30T15:10:17;6.13;;;4.93;;